Time;durP1;ratioP1;P1;durP2;ratioP2;P2;SDS_P1;SDS_P2;PMS_P1;PMS_P2;Temp;Humidity;BMP_temperature;BMP_pressure;BME280_temperature;BME280_humidity;BME280_pressure;Samples;Min_cycle;Max_cycle;Signal;HPM_P1;HPM_P2
2022/04/27 00:02:14;;;;;;;;;;;;;;;6.28;52.38184;102517.1;;;;-82
2022/04/27 00:07:14;;;;;;;;;;;;;;;6.23;52.375;102512.1;;;;-80
2022/04/27 00:12:17;;;;;;;;;;;;;;;6.17;52.53418;102509.4;;;;-80
2022/04/27 00:17:14;;;;;;;;;;;;;;;6.1;52.51465;102505.7;;;;-82
2022/04/27 00:22:16;;;;;;;;;;;;;;;6.01;52.62402;102505.5;;;;-82
2022/04/27 00:26:51;;;;;;;2.9;1.4;;;;;;;;;;;;;-82
2022/04/27 00:27:13;;;;;;;;;;;;;;;6;52.7334;102505.3;;;;-81
2022/04/27 00:32:17;;;;;;;;;;;;;;;5.96;52.58496;102505.7;;;;-81
2022/04/27 00:37:14;;;;;;;;;;;;;;;5.92;52.625;102505.1;;;;-80
2022/04/27 00:42:21;;;;;;;;;;;;;;;5.85;52.66016;102509.7;;;;-82
2022/04/27 00:47:14;;;;;;;;;;;;;;;5.8;52.70996;102514.2;;;;-81
2022/04/27 00:52:17;;;;;;;;;;;;;;;5.79;52.53223;102512.8;;;;-82
2022/04/27 00:56:52;;;;;;;3.3;1.8;;;;;;;;;;;;;-80
2022/04/27 00:57:17;;;;;;;;;;;;;;;5.79;52.70898;102516.1;;;;-80
2022/04/27 01:02:14;;;;;;;;;;;;;;;5.77;52.62891;102513.9;;;;-80
2022/04/27 01:07:13;;;;;;;;;;;;;;;5.78;52.67285;102516.7;;;;-82
2022/04/27 01:12:16;;;;;;;;;;;;;;;5.74;52.54883;102514.8;;;;-80
2022/04/27 01:17:14;;;;;;;;;;;;;;;5.74;52.67969;102521.6;;;;-80
2022/04/27 01:22:16;;;;;;;;;;;;;;;5.72;52.64453;102518.8;;;;-80
2022/04/27 01:26:51;;;;;;;3.5;1.6;;;;;;;;;;;;;-80
2022/04/27 01:27:13;;;;;;;;;;;;;;;5.69;52.78613;102524.6;;;;-80
2022/04/27 01:32:15;;;;;;;;;;;;;;;5.68;52.82715;102521.3;;;;-82
2022/04/27 01:42:14;;;;;;;;;;;;;;;5.66;52.79199;102527.3;;;;-82
2022/04/27 01:47:14;;;;;;;;;;;;;;;5.66;52.93457;102529.1;;;;-79
2022/04/27 01:56:52;;;;;;;2.7;1.4;;;;;;;;;;;;;-79
2022/04/27 01:57:14;;;;;;;;;;;;;;;5.67;53.0127;102534.1;;;;-81
2022/04/27 02:02:13;;;;;;;;;;;;;;;5.66;53.00195;102535;;;;-81
2022/04/27 02:07:14;;;;;;;;;;;;;;;5.69;53.06055;102536.9;;;;-80
2022/04/27 02:12:14;;;;;;;;;;;;;;;5.72;52.91992;102537.8;;;;-79
2022/04/27 02:17:14;;;;;;;;;;;;;;;5.75;52.79102;102537.8;;;;-82
2022/04/27 02:22:17;;;;;;;;;;;;;;;5.82;52.65723;102543.1;;;;-81
2022/04/27 02:26:50;;;;;;;3.8;1.3;;;;;;;;;;;;;-80
2022/04/27 02:27:13;;;;;;;;;;;;;;;5.88;52.59766;102553.6;;;;-82
2022/04/27 02:32:15;;;;;;;;;;;;;;;5.91;52.52441;102556.6;;;;-80
2022/04/27 02:37:17;;;;;;;;;;;;;;;5.96;52.50781;102560.9;;;;-79
2022/04/27 02:42:14;;;;;;;;;;;;;;;5.99;52.43555;102560.8;;;;-82
2022/04/27 02:47:14;;;;;;;;;;;;;;;6.04;52.50684;102559.5;;;;-80
2022/04/27 02:52:17;;;;;;;;;;;;;;;6.06;52.54297;102561.1;;;;-81
2022/04/27 02:56:53;;;;;;;2.3;1.3;;;;;;;;;;;;;-79
2022/04/27 02:57:13;;;;;;;;;;;;;;;6.09;52.49023;102570.6;;;;-81
2022/04/27 03:02:14;;;;;;;;;;;;;;;6.1;52.51465;102573.7;;;;-80
2022/04/27 03:07:19;;;;;;;;;;;;;;;6.13;52.61621;102573.6;;;;-82
2022/04/27 03:12:23;;;;;;;;;;;;;;;6.12;52.7041;102571.9;;;;-81
2022/04/27 03:17:15;;;;;;;;;;;;;;;6.11;52.7041;102573;;;;-81
2022/04/27 03:22:14;;;;;;;;;;;;;;;6.14;52.72949;102573.6;;;;-79
2022/04/27 03:26:52;;;;;;;2.3;1.3;;;;;;;;;;;;;-80
2022/04/27 03:27:13;;;;;;;;;;;;;;;6.12;52.75977;102572.4;;;;-80
2022/04/27 03:32:15;;;;;;;;;;;;;;;6.13;52.81445;102567.5;;;;-80
2022/04/27 03:37:14;;;;;;;;;;;;;;;6.11;52.73633;102566.4;;;;-81
2022/04/27 03:42:13;;;;;;;;;;;;;;;6.1;52.63574;102564.5;;;;-82
2022/04/27 03:47:13;;;;;;;;;;;;;;;6.09;52.72168;102569;;;;-80
2022/04/27 03:52:14;;;;;;;;;;;;;;;6.11;52.71484;102575.2;;;;-81
2022/04/27 03:56:52;;;;;;;2.7;1.4;;;;;;;;;;;;;-81
2022/04/27 03:57:13;;;;;;;;;;;;;;;6.11;52.68164;102572.2;;;;-80
2022/04/27 04:02:13;;;;;;;;;;;;;;;6.11;52.66992;102578;;;;-82
2022/04/27 04:07:15;;;;;;;;;;;;;;;6.12;52.56055;102580.6;;;;-81
2022/04/27 04:12:15;;;;;;;;;;;;;;;6.12;52.46191;102584.7;;;;-82
2022/04/27 04:17:18;;;;;;;;;;;;;;;6.13;52.57422;102583.1;;;;-80
2022/04/27 04:22:13;;;;;;;;;;;;;;;6.14;52.58594;102582.7;;;;-80
2022/04/27 04:32:14;;;;;;;;;;;;;;;6.17;52.5791;102586.8;;;;-78
2022/04/27 04:37:13;;;;;;;;;;;;;;;6.2;52.44922;102590.5;;;;-82
2022/04/27 04:42:14;;;;;;;;;;;;;;;6.22;52.38574;102599.7;;;;-80
2022/04/27 04:47:14;;;;;;;;;;;;;;;6.23;52.38672;102604.9;;;;-82
2022/04/27 04:52:15;;;;;;;;;;;;;;;6.24;52.29883;102610.8;;;;-81
2022/04/27 04:56:53;;;;;;;3.1;1.3;;;;;;;;;;;;;-81
2022/04/27 04:57:13;;;;;;;;;;;;;;;6.27;52.34766;102613.1;;;;-80
2022/04/27 05:02:13;;;;;;;;;;;;;;;6.34;52.31152;102622.1;;;;-79
2022/04/27 05:07:13;;;;;;;;;;;;;;;6.37;52.23828;102623.6;;;;-81
2022/04/27 05:12:14;;;;;;;;;;;;;;;6.41;52.1875;102623.8;;;;-81
2022/04/27 05:17:13;;;;;;;;;;;;;;;6.47;52.32813;102630.6;;;;-80
2022/04/27 05:22:13;;;;;;;;;;;;;;;6.55;52.12695;102635;;;;-80
2022/04/27 05:26:51;;;;;;;2.2;1.2;;;;;;;;;;;;;-81
2022/04/27 05:27:15;;;;;;;;;;;;;;;6.65;51.93945;102642.3;;;;-80
2022/04/27 05:32:14;;;;;;;;;;;;;;;6.73;51.86035;102645.7;;;;-81
2022/04/27 05:37:14;;;;;;;;;;;;;;;6.83;51.87305;102657;;;;-80
2022/04/27 05:42:13;;;;;;;;;;;;;;;6.95;51.76563;102663.7;;;;-79
2022/04/27 05:47:18;;;;;;;;;;;;;;;7.09;51.7168;102669.8;;;;-81
2022/04/27 05:52:13;;;;;;;;;;;;;;;7.23;51.60059;102671.5;;;;-82
2022/04/27 05:56:49;;;;;;;3.8;1.5;;;;;;;;;;;;;-80
2022/04/27 05:57:14;;;;;;;;;;;;;;;7.4;51.36523;102674.4;;;;-81
2022/04/27 06:02:13;;;;;;;;;;;;;;;7.56;51.16406;102675.3;;;;-81
2022/04/27 06:07:13;;;;;;;;;;;;;;;7.77;50.98828;102676.7;;;;-78
2022/04/27 06:12:14;;;;;;;;;;;;;;;7.98;50.66992;102681.5;;;;-80
2022/04/27 06:17:13;;;;;;;;;;;;;;;8.18;50.48242;102682.2;;;;-81
2022/04/27 06:22:13;;;;;;;;;;;;;;;8.42;50.2207;102683.6;;;;-80
2022/04/27 06:26:50;;;;;;;2.8;1.3;;;;;;;;;;;;;-81
2022/04/27 06:27:15;;;;;;;;;;;;;;;8.65;49.82422;102685.5;;;;-80
2022/04/27 06:32:14;;;;;;;;;;;;;;;8.84;49.46875;102691.7;;;;-80
2022/04/27 06:37:21;;;;;;;;;;;;;;;8.97;49.4834;102701.1;;;;-80
2022/04/27 06:42:13;;;;;;;;;;;;;;;9.12;49.2998;102708.4;;;;-82
2022/04/27 06:47:14;;;;;;;;;;;;;;;9.26;49.10449;102711.9;;;;-81
2022/04/27 06:52:13;;;;;;;;;;;;;;;9.4;49.05273;102717.3;;;;-80
2022/04/27 06:56:49;;;;;;;2.1;1.2;;;;;;;;;;;;;-79
2022/04/27 06:57:14;;;;;;;;;;;;;;;9.53;48.93457;102724;;;;-81
2022/04/27 07:02:14;;;;;;;;;;;;;;;9.69;48.85156;102728.2;;;;-80
2022/04/27 07:07:13;;;;;;;;;;;;;;;9.85;48.72656;102722.4;;;;-81
2022/04/27 07:12:14;;;;;;;;;;;;;;;10.07;48.51465;102733.4;;;;-76
2022/04/27 07:17:13;;;;;;;;;;;;;;;10.27;48.44824;102732.2;;;;-76
2022/04/27 07:22:14;;;;;;;;;;;;;;;10.51;48.17383;102736.2;;;;-75
2022/04/27 07:26:51;;;;;;;4.1;1.4;;;;;;;;;;;;;-76
2022/04/27 07:27:14;;;;;;;;;;;;;;;10.83;48.1875;102740;;;;-76
2022/04/27 07:32:13;;;;;;;;;;;;;;;11.22;48.19727;102741.2;;;;-75
2022/04/27 07:37:13;;;;;;;;;;;;;;;11.59;48.125;102748.1;;;;-75
2022/04/27 07:42:15;;;;;;;;;;;;;;;12.01;47.80176;102750.7;;;;-75
2022/04/27 07:47:15;;;;;;;;;;;;;;;12.56;47.34473;102756.8;;;;-76
2022/04/27 07:52:14;;;;;;;;;;;;;;;13.04;46.41992;102760.1;;;;-75
2022/04/27 07:56:50;;;;;;;5.2;1.9;;;;;;;;;;;;;-75
2022/04/27 07:57:18;;;;;;;;;;;;;;;13.28;46.24316;102764.1;;;;-75
2022/04/27 08:02:13;;;;;;;;;;;;;;;13.46;46.07129;102763.1;;;;-78
2022/04/27 08:07:13;;;;;;;;;;;;;;;13.62;45.95215;102765.3;;;;-75
2022/04/27 08:12:13;;;;;;;;;;;;;;;13.74;45.77441;102773.6;;;;-75
2022/04/27 08:17:13;;;;;;;;;;;;;;;13.84;45.68359;102778.9;;;;-75
2022/04/27 08:22:14;;;;;;;;;;;;;;;13.92;45.55566;102783.4;;;;-76
2022/04/27 08:26:50;;;;;;;5.4;1.8;;;;;;;;;;;;;-77
2022/04/27 08:27:13;;;;;;;;;;;;;;;13.99;45.74316;102785.6;;;;-76
2022/04/27 08:32:13;;;;;;;;;;;;;;;14.08;45.43652;102785.2;;;;-75
2022/04/27 08:37:14;;;;;;;;;;;;;;;14.16;45.53613;102791.9;;;;-74
2022/04/27 08:42:13;;;;;;;;;;;;;;;14.28;45.1084;102795.8;;;;-76
2022/04/27 08:47:13;;;;;;;;;;;;;;;14.41;45.16699;102798;;;;-75
2022/04/27 08:52:15;;;;;;;;;;;;;;;14.54;44.9541;102802;;;;-74
2022/04/27 08:56:52;;;;;;;7.8;2.1;;;;;;;;;;;;;-75
2022/04/27 08:57:13;;;;;;;;;;;;;;;14.69;45.12695;102812;;;;-74
2022/04/27 09:02:28;;;;;;;;;;;;;;;14.82;44.61035;102814.3;;;;-74
2022/04/27 09:07:23;;;;;;;;;;;;;;;14.95;44.66895;102816.2;;;;-74
2022/04/27 09:12:23;;;;;;;;;;;;;;;15.11;44.70801;102816.1;;;;-75
2022/04/27 09:22:16;;;;;;;;;;;;;;;15.7;43.83984;102815.2;;;;-76
2022/04/27 09:27:02;;;;;;;6.4;1.9;;;;;;;;;;;;;-77
2022/04/27 09:27:34;;;;;;;;;;;;;;;15.92;43.2041;102820.1;;;;-77
2022/04/27 09:32:19;;;;;;;;;;;;;;;16.11;42.96289;102818.3;;;;-74
2022/04/27 09:37:21;;;;;;;;;;;;;;;16.26;42.75098;102820.3;;;;-75
2022/04/27 09:42:17;;;;;;;;;;;;;;;16.43;42.55176;102827.3;;;;-76
2022/04/27 09:47:16;;;;;;;;;;;;;;;16.55;42.31348;102829.1;;;;-75
2022/04/27 09:52:19;;;;;;;;;;;;;;;16.69;41.93066;102824.5;;;;-76
2022/04/27 09:57:08;;;;;;;9.9;1.8;;;;;;;;;;;;;-76
2022/04/27 09:57:22;;;;;;;;;;;;;;;16.75;41.70898;102816.8;;;;-76
2022/04/27 10:02:14;;;;;;;;;;;;;;;16.98;41.74219;102830.3;;;;-75
2022/04/27 10:07:14;;;;;;;;;;;;;;;17.1;41.82129;102830;;;;-78
2022/04/27 10:12:16;;;;;;;;;;;;;;;17.22;41.38965;102834.4;;;;-76
2022/04/27 10:17:15;;;;;;;;;;;;;;;17.34;41.67285;102831.2;;;;-75
2022/04/27 10:22:24;;;;;;;;;;;;;;;17.46;41.91211;102834.2;;;;-78
2022/04/27 10:26:55;;;;;;;7.2;1.8;;;;;;;;;;;;;-75
2022/04/27 10:27:21;;;;;;;;;;;;;;;17.57;41.06836;102827.3;;;;-76
2022/04/27 10:32:13;;;;;;;;;;;;;;;17.72;40.75293;102828.8;;;;-77
2022/04/27 10:37:15;;;;;;;;;;;;;;;17.85;40.81152;102829;;;;-76
2022/04/27 10:42:28;;;;;;;;;;;;;;;18.01;40.5752;102831.2;;;;-77
2022/04/27 10:47:21;;;;;;;;;;;;;;;18.15;40.20117;102824.1;;;;-77
2022/04/27 10:52:14;;;;;;;;;;;;;;;18.32;40.35254;102824.9;;;;-77
2022/04/27 10:56:57;;;;;;;7.1;1.9;;;;;;;;;;;;;-76
2022/04/27 10:57:24;;;;;;;;;;;;;;;18.47;40.05957;102830.7;;;;-79
2022/04/27 11:02:24;;;;;;;;;;;;;;;18.63;39.73047;102832.2;;;;-77
2022/04/27 11:07:29;;;;;;;;;;;;;;;18.8;39.59766;102830.3;;;;-75
2022/04/27 11:12:14;;;;;;;;;;;;;;;18.91;39.45996;102830.6;;;;-74
2022/04/27 11:17:14;;;;;;;;;;;;;;;18.98;38.51758;102829.7;;;;-77
2022/04/27 11:22:20;;;;;;;;;;;;;;;18.97;38.62012;102831.8;;;;-77
2022/04/27 11:26:59;;;;;;;6.9;1.7;;;;;;;;;;;;;-78
2022/04/27 11:27:16;;;;;;;;;;;;;;;18.95;38.5957;102826;;;;-77
2022/04/27 11:32:16;;;;;;;;;;;;;;;18.99;39.1123;102825.2;;;;-80
2022/04/27 11:37:30;;;;;;;;;;;;;;;19.04;38.96777;102827.5;;;;-83
2022/04/27 11:42:19;;;;;;;;;;;;;;;19.06;38.84375;102824.4;;;;-83
2022/04/27 11:47:27;;;;;;;;;;;;;;;19.04;39.03711;102821.3;;;;-82
2022/04/27 11:52:27;;;;;;;;;;;;;;;19.07;38.77734;102822.3;;;;-82
2022/04/27 11:57:03;;;;;;;4.7;1.7;;;;;;;;;;;;;-80
2022/04/27 11:57:14;;;;;;;;;;;;;;;19.14;38.50977;102824;;;;-80
2022/04/27 12:02:14;;;;;;;;;;;;;;;19.23;38.75586;102826.4;;;;-81
2022/04/27 12:07:19;;;;;;;;;;;;;;;19.27;37.6748;102833;;;;-81
2022/04/27 12:12:17;;;;;;;;;;;;;;;19.27;38.2793;102833.9;;;;-82
2022/04/27 12:17:26;;;;;;;;;;;;;;;19.24;38.21973;102829;;;;-83
2022/04/27 12:22:19;;;;;;;;;;;;;;;19.2;38.05664;102831.2;;;;-82
2022/04/27 12:27:05;;;;;;;5.9;1.9;;;;;;;;;;;;;-81
2022/04/27 12:27:24;;;;;;;;;;;;;;;19.05;37.64453;102813.7;;;;-81
2022/04/27 12:32:14;;;;;;;;;;;;;;;19.08;37.7959;102832.6;;;;-83
2022/04/27 12:37:36;;;;;;;;;;;;;;;19.04;37.83691;102834.3;;;;-83
2022/04/27 12:42:17;;;;;;;;;;;;;;;19.05;37.81641;102824;;;;-81
2022/04/27 12:47:16;;;;;;;;;;;;;;;19.09;38.01367;102825.5;;;;-82
2022/04/27 12:52:26;;;;;;;;;;;;;;;19.12;37.90234;102822.9;;;;-83
2022/04/27 12:57:08;;;;;;;5.1;1.5;;;;;;;;;;;;;-82
2022/04/27 12:57:18;;;;;;;;;;;;;;;19.15;37.49316;102813;;;;-81
2022/04/27 13:02:17;;;;;;;;;;;;;;;19.25;37.76465;102818.3;;;;-81
2022/04/27 13:07:13;;;;;;;;;;;;;;;19.3;37.5166;102820.8;;;;-81
2022/04/27 13:12:14;;;;;;;;;;;;;;;19.31;36.87695;102828.9;;;;-80
2022/04/27 13:17:13;;;;;;;;;;;;;;;19.3;36.5791;102824.7;;;;-82
2022/04/27 13:22:14;;;;;;;;;;;;;;;19.3;37.07129;102824.5;;;;-82
2022/04/27 13:27:12;;;;;;;6.4;1.8;;;;;;;;;;;;;-83
2022/04/27 13:27:25;;;;;;;;;;;;;;;19.22;36.80176;102809.4;;;;-82
2022/04/27 13:32:14;;;;;;;;;;;;;;;19.16;37.27637;102813.5;;;;-82
2022/04/27 13:37:14;;;;;;;;;;;;;;;19.07;37.09766;102818.2;;;;-80
2022/04/27 13:42:13;;;;;;;;;;;;;;;18.95;37.20215;102824.6;;;;-82
2022/04/27 13:47:13;;;;;;;;;;;;;;;18.83;37.35156;102826.7;;;;-81
2022/04/27 13:52:14;;;;;;;;;;;;;;;18.67;37.45215;102826.9;;;;-84
2022/04/27 13:57:11;;;;;;;5;1.7;;;;;;;;;;;;;-79
2022/04/27 13:57:21;;;;;;;;;;;;;;;18.46;37.48047;102816;;;;-79
2022/04/27 14:02:15;;;;;;;;;;;;;;;18.32;37.81055;102817.3;;;;-82
2022/04/27 14:07:14;;;;;;;;;;;;;;;18.18;37.80957;102816;;;;-81
2022/04/27 14:22:13;;;;;;;;;;;;;;;18.01;37.9209;102816.2;;;;-82
2022/04/27 14:27:15;;;;;;;;;;;;;;;17.98;37.95215;102810.5;;;;-79
2022/04/27 14:27:24;;;;;;;5.8;1.7;;;;;;;;;;;;;-79
2022/04/27 14:32:13;;;;;;;;;;;;;;;17.96;37.97266;102805.7;;;;-82
2022/04/27 14:37:13;;;;;;;;;;;;;;;17.99;37.97461;102800.7;;;;-81
2022/04/27 14:42:13;;;;;;;;;;;;;;;18.05;37.68457;102801.1;;;;-82
2022/04/27 14:47:13;;;;;;;;;;;;;;;18.1;37.63281;102797.1;;;;-82
2022/04/27 14:52:14;;;;;;;;;;;;;;;18.16;37.60254;102796.6;;;;-82
2022/04/27 14:57:13;;;;;;;;;;;;;;;18.22;37.60742;102793.7;;;;-82
2022/04/27 14:57:25;;;;;;;6.3;1.6;;;;;;;;;;;;;-82
2022/04/27 15:02:13;;;;;;;;;;;;;;;18.24;37.08496;102796.5;;;;-83
2022/04/27 15:07:13;;;;;;;;;;;;;;;18.25;37.29102;102801.2;;;;-83
2022/04/27 15:12:14;;;;;;;;;;;;;;;18.28;37.04297;102800;;;;-83
2022/04/27 15:17:13;;;;;;;;;;;;;;;18.33;37.14941;102796.9;;;;-83
2022/04/27 15:27:14;;;;;;;;;;;;;;;18.51;36.51367;102801.2;;;;-82
2022/04/27 15:27:27;;;;;;;5.1;1.9;;;;;;;;;;;;;-82
2022/04/27 15:32:15;;;;;;;;;;;;;;;18.59;36.78418;102794.2;;;;-83
2022/04/27 15:37:15;;;;;;;;;;;;;;;18.72;36.71387;102793.5;;;;-82
2022/04/27 15:42:13;;;;;;;;;;;;;;;18.89;36.68164;102788.1;;;;-81
2022/04/27 15:47:13;;;;;;;;;;;;;;;19.08;36.56152;102792;;;;-83
2022/04/27 15:52:18;;;;;;;;;;;;;;;19.11;36.80371;102794.3;;;;-84
2022/04/27 15:57:19;;;;;;;;;;;;;;;19.04;36.74023;102798;;;;-83
2022/04/27 15:57:29;;;;;;;4.9;1.9;;;;;;;;;;;;;-83
2022/04/27 16:02:14;;;;;;;;;;;;;;;18.91;36.91211;102805.9;;;;-81
2022/04/27 16:07:18;;;;;;;;;;;;;;;18.73;37;102802.6;;;;-83
2022/04/27 16:12:15;;;;;;;;;;;;;;;18.54;37.27051;102813.2;;;;-85
2022/04/27 16:17:15;;;;;;;;;;;;;;;18.36;37.3457;102810.5;;;;-85
2022/04/27 16:27:13;;;;;;;;;;;;;;;17.94;37.50391;102820.6;;;;-84
2022/04/27 16:27:25;;;;;;;16.6;9.5;;;;;;;;;;;;;-84
2022/04/27 16:32:20;;;;;;;;;;;;;;;17.81;37.91504;102820.7;;;;-84
2022/04/27 16:37:18;;;;;;;;;;;;;;;17.81;38.02832;102829.9;;;;-81
2022/04/27 16:42:14;;;;;;;;;;;;;;;17.76;37.66016;102826.3;;;;-83
2022/04/27 16:47:17;;;;;;;;;;;;;;;17.67;37.86914;102825.9;;;;-83
2022/04/27 16:52:14;;;;;;;;;;;;;;;17.58;38.11133;102831;;;;-84
2022/04/27 16:57:23;;;;;;;;;;;;;;;17.42;38.10938;102829.6;;;;-82
2022/04/27 16:57:35;;;;;;;21.1;11.4;;;;;;;;;;;;;-82
2022/04/27 17:02:13;;;;;;;;;;;;;;;17.27;38.34668;102829.3;;;;-80
2022/04/27 17:07:13;;;;;;;;;;;;;;;17.13;38.55078;102830.6;;;;-81
2022/04/27 17:14:01;;;;;;;;;;;;;;;16.91;38.89453;102833;;;;-81
2022/04/27 17:19:01;;;;;;;;;;;;;;;16.75;39.14258;102833.9;;;;-79
2022/04/27 17:24:02;;;;;;;;;;;;;;;16.57;39.3877;102838.6;;;;-80
2022/04/27 17:27:41;;;;;;;11.2;5.2;;;;;;;;;;;;;-79
2022/04/27 17:29:01;;;;;;;;;;;;;;;16.34;39.65039;102843;;;;-79
2022/04/27 17:34:03;;;;;;;;;;;;;;;16.12;39.6875;102842.4;;;;-80
2022/04/27 17:39:01;;;;;;;;;;;;;;;15.92;39.90723;102840.6;;;;-80
2022/04/27 17:44:04;;;;;;;;;;;;;;;15.73;40.08301;102849.8;;;;-79
2022/04/27 17:49:02;;;;;;;;;;;;;;;15.56;40.19141;102854.5;;;;-81
2022/04/27 17:54:01;;;;;;;;;;;;;;;15.39;40.27832;102861;;;;-80
2022/04/27 17:57:29;;;;;;;7.3;3.1;;;;;;;;;;;;;-80
2022/04/27 17:59:01;;;;;;;;;;;;;;;15.23;40.3877;102869.7;;;;-80
2022/04/27 18:04:01;;;;;;;;;;;;;;;15.08;40.44238;102868.7;;;;-80
2022/04/27 18:09:01;;;;;;;;;;;;;;;14.91;40.52832;102877.8;;;;-79
2022/04/27 18:14:06;;;;;;;;;;;;;;;14.72;40.6582;102882.1;;;;-81
2022/04/27 18:19:03;;;;;;;;;;;;;;;14.55;40.74316;102890.6;;;;-80
2022/04/27 18:24:04;;;;;;;;;;;;;;;14.36;40.82715;102892.4;;;;-79
2022/04/27 18:27:28;;;;;;;5.7;2.2;;;;;;;;;;;;;-82
2022/04/27 18:29:01;;;;;;;;;;;;;;;14.18;40.93457;102893.4;;;;-82
2022/04/27 18:34:04;;;;;;;;;;;;;;;14;41.13184;102900.5;;;;-81
2022/04/27 18:39:11;;;;;;;;;;;;;;;13.83;41.27441;102900.7;;;;-79
2022/04/27 18:54:42;;;;;;;;;;;;;;;13.25;41.81641;102908.1;;;;-83
2022/04/27 18:57:31;;;;;;;4.4;2;;;;;;;;;;;;;-81
2022/04/27 18:59:41;;;;;;;;;;;;;;;13.08;42.08105;102912.1;;;;-82
2022/04/27 19:04:42;;;;;;;;;;;;;;;12.92;42.34766;102913.2;;;;-80
2022/04/27 19:09:41;;;;;;;;;;;;;;;12.77;42.54688;102921.2;;;;-80
2022/04/27 19:14:42;;;;;;;;;;;;;;;12.63;42.83691;102926.1;;;;-82
2022/04/27 19:19:56;;;;;;;;;;;;;;;12.5;43.03809;102929.4;;;;-83
2022/04/27 19:24:47;;;;;;;;;;;;;;;12.36;43.2041;102929.1;;;;-82
2022/04/27 19:27:32;;;;;;;6.3;2;;;;;;;;;;;;;-82
2022/04/27 19:29:49;;;;;;;;;;;;;;;12.24;43.50586;102933.8;;;;-83
2022/04/27 19:39:47;;;;;;;;;;;;;;;12.02;43.82129;102931.9;;;;-83
2022/04/27 19:44:43;;;;;;;;;;;;;;;11.91;44.03516;102927.2;;;;-83
2022/04/27 19:49:52;;;;;;;;;;;;;;;;;;;;;
2022/04/27 19:54:56;;;;;;;;;;;;;;;11.72;44.25098;102934.7;;;;-82
2022/04/27 19:57:38;;;;;;;4.5;2;;;;;;;;;;;;;-83
2022/04/27 19:59:54;;;;;;;;;;;;;;;11.65;44.40137;102940.8;;;;-82
2022/04/27 20:04:43;;;;;;;;;;;;;;;11.55;44.58105;102942.9;;;;-82
2022/04/27 20:09:54;;;;;;;;;;;;;;;11.47;44.75195;102942.4;;;;-82
2022/04/27 20:14:48;;;;;;;;;;;;;;;11.37;44.89941;102944.1;;;;-82
2022/04/27 20:19:53;;;;;;;;;;;;;;;11.28;45.08008;102948.5;;;;-83
2022/04/27 20:24:42;;;;;;;;;;;;;;;11.17;45.3252;102946.1;;;;-83
2022/04/27 20:27:38;;;;;;;4.4;1.8;;;;;;;;;;;;;-83
2022/04/27 20:29:41;;;;;;;;;;;;;;;11.03;45.33398;102959.3;;;;-82
2022/04/27 20:34:48;;;;;;;;;;;;;;;10.9;45.44336;102959.4;;;;-84
2022/04/27 20:39:43;;;;;;;;;;;;;;;10.78;45.74414;102958.5;;;;-82
2022/04/27 20:44:55;;;;;;;;;;;;;;;;;;;;;
2022/04/27 20:54:55;;;;;;;;;;;;;;;10.4;46.20703;102957.1;;;;-82
2022/04/27 20:59:55;;;;;;;;;;;;;;;10.26;46.21484;102959.9;;;;-81
2022/04/27 21:09:45;;;;;;;;;;;;;;;9.98;46.56445;102960.3;;;;-83
2022/04/27 21:14:45;;;;;;;;;;;;;;;9.85;46.85156;102969.7;;;;-82
2022/04/27 21:19:44;;;;;;;;;;;;;;;9.71;46.83594;102974.4;;;;-80
2022/04/27 21:24:47;;;;;;;;;;;;;;;9.56;47.04297;102980.3;;;;-81
2022/04/27 21:27:35;;;;;;;3.7;1.9;;;;;;;;;;;;;-81
2022/04/27 21:29:45;;;;;;;;;;;;;;;9.41;47.22754;102984.4;;;;-80
2022/04/27 21:34:46;;;;;;;;;;;;;;;9.3;47.42773;102986.8;;;;-81
2022/04/27 21:39:44;;;;;;;;;;;;;;;9.16;47.41211;102990;;;;-80
2022/04/27 21:44:47;;;;;;;;;;;;;;;9.02;47.66406;102992.9;;;;-81
2022/04/27 21:49:45;;;;;;;;;;;;;;;8.92;47.71875;102994.8;;;;-82
2022/04/27 21:54:44;;;;;;;;;;;;;;;8.79;47.83887;102998;;;;-82
2022/04/27 21:57:36;;;;;;;4;1.8;;;;;;;;;;;;;-80
2022/04/27 21:59:45;;;;;;;;;;;;;;;8.67;47.87012;103002.9;;;;-81
2022/04/27 22:04:50;;;;;;;;;;;;;;;8.56;48.08008;103016.1;;;;-81
2022/04/27 22:09:48;;;;;;;;;;;;;;;8.46;48.31348;103021.3;;;;-80
2022/04/27 22:14:46;;;;;;;;;;;;;;;8.37;48.28223;103021.2;;;;-82
2022/04/27 22:19:45;;;;;;;;;;;;;;;8.28;48.29492;103026.9;;;;-83
2022/04/27 22:24:47;;;;;;;;;;;;;;;8.18;48.57227;103035;;;;-81
2022/04/27 22:27:38;;;;;;;5.6;1.9;;;;;;;;;;;;;-81
2022/04/27 22:29:46;;;;;;;;;;;;;;;8.09;48.61621;103033.7;;;;-80
2022/04/27 22:34:45;;;;;;;;;;;;;;;8;48.78418;103046;;;;-81
2022/04/27 22:39:45;;;;;;;;;;;;;;;7.93;48.84473;103046.2;;;;-81
2022/04/27 22:44:45;;;;;;;;;;;;;;;7.8;48.82813;103051.4;;;;-81
2022/04/27 22:49:45;;;;;;;;;;;;;;;7.71;49.10742;103051.8;;;;-82
2022/04/27 22:54:45;;;;;;;;;;;;;;;7.62;49.16309;103057.1;;;;-81
2022/04/27 22:57:35;;;;;;;3.4;1.7;;;;;;;;;;;;;-81
2022/04/27 22:59:44;;;;;;;;;;;;;;;7.54;49.23145;103061.5;;;;-79
2022/04/27 23:04:44;;;;;;;;;;;;;;;7.43;49.29688;103060.6;;;;-80
2022/04/27 23:14:48;;;;;;;;;;;;;;;7.24;49.56348;103068.5;;;;-80
2022/04/27 23:19:44;;;;;;;;;;;;;;;7.15;49.6084;103069.5;;;;-83
2022/04/27 23:24:44;;;;;;;;;;;;;;;7.06;49.59766;103072.3;;;;-80
2022/04/27 23:27:34;;;;;;;4.3;1.8;;;;;;;;;;;;;-82
2022/04/27 23:29:44;;;;;;;;;;;;;;;7;49.85645;103077.7;;;;-80
2022/04/27 23:34:44;;;;;;;;;;;;;;;6.93;49.75879;103078;;;;-81
2022/04/27 23:39:45;;;;;;;;;;;;;;;6.83;49.79297;103074.1;;;;-82
2022/04/27 23:44:44;;;;;;;;;;;;;;;6.75;49.92773;103067.8;;;;-81
2022/04/27 23:49:51;;;;;;;;;;;;;;;6.7;49.86523;103069.5;;;;-81
2022/04/27 23:54:44;;;;;;;;;;;;;;;6.61;49.86719;103066.1;;;;-81
2022/04/27 23:57:34;;;;;;;4.7;1.8;;;;;;;;;;;;;-80
2022/04/27 23:59:45;;;;;;;;;;;;;;;6.53;49.90234;103069.3;;;;-81
